NWS162 URMM-UWKD
Flight info
| Callsign | NWS162 |
|---|---|
| Flight time | 2h 9m |
| Altitude | 39000 |
| Route | LARIN5M LARIN G481 NIRGA R807 UROBO P135 DAFOS T789 SONUM SONUM1T |
| Aircraft | A321/M-SDE3FGHIRWY/LB1 |
Departure
| Time | 2026-05-07 16:42 |
|---|---|
| Airport | Mineralnye Vody Airport (URMM) |
Arrival
| Time | 2026-05-07 18:51 |
|---|---|
| Airport | Kazan International Airport (UWKD) |
| Time | Latitude | Longitude | Altitude | Speed | Heading |
|---|---|---|---|---|---|
| 2026-05-07 16:10 | 44.22083 | 43.08293 | 1051 ft | 0 kts | 212° |
| 2026-05-07 16:30 | 44.22089 | 43.08298 | 1051 ft | 4 kts | 210° |
| 2026-05-07 16:30 | 44.22113 | 43.08313 | 1054 ft | 4 kts | 188° |
| 2026-05-07 16:30 | 44.22138 | 43.08311 | 1051 ft | 4 kts | 150° |
| 2026-05-07 16:30 | 44.22151 | 43.08295 | 1051 ft | 1 kts | 122° |
| 2026-05-07 16:31 | 44.22153 | 43.08292 | 1052 ft | 1 kts | 122° |
| 2026-05-07 16:33 | 44.22153 | 43.08291 | 1052 ft | 0 kts | 122° |
| 2026-05-07 16:36 | 44.22152 | 43.08293 | 1052 ft | 1 kts | 122° |
| 2026-05-07 16:36 | 44.22141 | 43.08318 | 1053 ft | 5 kts | 122° |
| 2026-05-07 16:37 | 44.22118 | 43.08368 | 1051 ft | 8 kts | 122° |
| 2026-05-07 16:37 | 44.22085 | 43.08444 | 1051 ft | 11 kts | 122° |
| 2026-05-07 16:37 | 44.22040 | 43.08543 | 1051 ft | 13 kts | 122° |
| 2026-05-07 16:37 | 44.22003 | 43.08670 | 1051 ft | 14 kts | 111° |
| 2026-05-07 16:38 | 44.21947 | 43.08799 | 1051 ft | 17 kts | 122° |
| 2026-05-07 16:38 | 44.21878 | 43.08949 | 1051 ft | 19 kts | 122° |
| 2026-05-07 16:38 | 44.21798 | 43.09115 | 1051 ft | 22 kts | 124° |
| 2026-05-07 16:38 | 44.21709 | 43.09298 | 1052 ft | 24 kts | 133° |
| 2026-05-07 16:39 | 44.21609 | 43.09490 | 1051 ft | 22 kts | 122° |
| 2026-05-07 16:39 | 44.21561 | 43.09596 | 1051 ft | 14 kts | 122° |
| 2026-05-07 16:39 | 44.21510 | 43.09726 | 1051 ft | 16 kts | 103° |
| 2026-05-07 16:39 | 44.21532 | 43.09891 | 1052 ft | 19 kts | 77° |
| 2026-05-07 16:40 | 44.21563 | 43.10080 | 1053 ft | 18 kts | 77° |
| 2026-05-07 16:40 | 44.21588 | 43.10195 | 1051 ft | 14 kts | 58° |
| 2026-05-07 16:40 | 44.21673 | 43.10278 | 1051 ft | 16 kts | 33° |
| 2026-05-07 16:40 | 44.21735 | 43.10328 | 1052 ft | 6 kts | 11° |
| 2026-05-07 16:41 | 44.21773 | 43.10295 | 1053 ft | 8 kts | 308° |
| 2026-05-07 16:41 | 44.21815 | 43.10204 | 1053 ft | 19 kts | 302° |
| 2026-05-07 16:41 | 44.22057 | 43.09666 | 1058 ft | 110 kts | 302° |
| 2026-05-07 16:41 | 44.22602 | 43.08465 | 1064 ft | 178 kts | 306° |
| 2026-05-07 16:42 | 44.23263 | 43.07102 | 2080 ft | 164 kts | 305° |
| 2026-05-07 16:42 | 44.23898 | 43.05769 | 3028 ft | 170 kts | 302° |
| 2026-05-07 16:42 | 44.24566 | 43.04265 | 3685 ft | 196 kts | 301° |
| 2026-05-07 16:42 | 44.25328 | 43.02537 | 4448 ft | 222 kts | 301° |
| 2026-05-07 16:43 | 44.26185 | 43.00601 | 5305 ft | 247 kts | 302° |
| 2026-05-07 16:43 | 44.27114 | 42.98510 | 6430 ft | 258 kts | 303° |
| 2026-05-07 16:43 | 44.28080 | 42.96354 | 7658 ft | 265 kts | 303° |
| 2026-05-07 16:43 | 44.29068 | 42.94157 | 8625 ft | 270 kts | 303° |
| 2026-05-07 16:44 | 44.30158 | 42.91991 | 9518 ft | 276 kts | 316° |
| 2026-05-07 16:44 | 44.31789 | 42.90582 | 10345 ft | 281 kts | 342° |
| 2026-05-07 16:44 | 44.33740 | 42.90333 | 11172 ft | 286 kts | 8° |
| 2026-05-07 16:44 | 44.35726 | 42.91051 | 11658 ft | 307 kts | 16° |
| 2026-05-07 16:45 | 44.37826 | 42.91969 | 12117 ft | 323 kts | 17° |
| 2026-05-07 16:45 | 44.39989 | 42.92947 | 12876 ft | 330 kts | 18° |
| 2026-05-07 16:45 | 44.42186 | 42.93946 | 13706 ft | 334 kts | 18° |
| 2026-05-07 16:45 | 44.44413 | 42.94954 | 14466 ft | 338 kts | 18° |
| 2026-05-07 16:46 | 44.46669 | 42.95966 | 15214 ft | 342 kts | 18° |
| 2026-05-07 16:46 | 44.48946 | 42.96981 | 15970 ft | 346 kts | 18° |
| 2026-05-07 16:46 | 44.50469 | 42.97658 | 16478 ft | 348 kts | 18° |
| 2026-05-07 16:46 | 44.52791 | 42.98686 | 17236 ft | 352 kts | 18° |
| 2026-05-07 16:47 | 44.55141 | 42.99725 | 17982 ft | 356 kts | 18° |
| 2026-05-07 16:47 | 44.57515 | 43.00774 | 18680 ft | 360 kts | 18° |
| 2026-05-07 16:47 | 44.59891 | 43.01929 | 19298 ft | 363 kts | 24° |
| 2026-05-07 16:47 | 44.62131 | 43.03597 | 19922 ft | 366 kts | 30° |
| 2026-05-07 16:48 | 44.64341 | 43.05397 | 20571 ft | 370 kts | 30° |
| 2026-05-07 16:48 | 44.66579 | 43.07220 | 21211 ft | 373 kts | 30° |
| 2026-05-07 16:48 | 44.68835 | 43.09052 | 21818 ft | 377 kts | 30° |
| 2026-05-07 16:48 | 44.71117 | 43.10904 | 22404 ft | 381 kts | 30° |
| 2026-05-07 16:49 | 44.73414 | 43.12770 | 22983 ft | 384 kts | 30° |
| 2026-05-07 16:49 | 44.75748 | 43.14669 | 23561 ft | 388 kts | 30° |
| 2026-05-07 16:49 | 44.78092 | 43.16580 | 24070 ft | 392 kts | 30° |
| 2026-05-07 16:49 | 44.80458 | 43.18513 | 24572 ft | 394 kts | 30° |
| 2026-05-07 16:50 | 44.82840 | 43.20461 | 25092 ft | 396 kts | 30° |
| 2026-05-07 16:50 | 44.85238 | 43.22420 | 25610 ft | 399 kts | 30° |
| 2026-05-07 16:50 | 44.87649 | 43.24389 | 26120 ft | 401 kts | 30° |
| 2026-05-07 16:50 | 44.90077 | 43.26373 | 26630 ft | 404 kts | 30° |
| 2026-05-07 16:51 | 44.92519 | 43.28374 | 27125 ft | 406 kts | 30° |
| 2026-05-07 16:51 | 44.94962 | 43.30382 | 27630 ft | 409 kts | 31° |
| 2026-05-07 16:51 | 44.97399 | 43.32387 | 28108 ft | 411 kts | 31° |
| 2026-05-07 16:51 | 44.99878 | 43.34432 | 28590 ft | 414 kts | 31° |
| 2026-05-07 16:52 | 45.02373 | 43.36491 | 29062 ft | 417 kts | 31° |
| 2026-05-07 16:52 | 45.04886 | 43.38563 | 29541 ft | 419 kts | 31° |
| 2026-05-07 16:52 | 45.07461 | 43.40531 | 30001 ft | 422 kts | 25° |
| 2026-05-07 16:52 | 45.10240 | 43.41943 | 30411 ft | 426 kts | 15° |
| 2026-05-07 16:53 | 45.13149 | 43.42806 | 30777 ft | 429 kts | 12° |
| 2026-05-07 16:53 | 45.16094 | 43.43607 | 31154 ft | 432 kts | 12° |
| 2026-05-07 16:53 | 45.19061 | 43.44420 | 31519 ft | 435 kts | 12° |
| 2026-05-07 16:53 | 45.22028 | 43.45239 | 31948 ft | 435 kts | 12° |
| 2026-05-07 16:54 | 45.24997 | 43.46057 | 32450 ft | 434 kts | 12° |
| 2026-05-07 16:54 | 45.27956 | 43.46873 | 32949 ft | 433 kts | 12° |
| 2026-05-07 16:54 | 45.30913 | 43.47687 | 33435 ft | 432 kts | 12° |
| 2026-05-07 16:54 | 45.33859 | 43.48500 | 33921 ft | 432 kts | 12° |
| 2026-05-07 16:55 | 45.36805 | 43.49316 | 34338 ft | 431 kts | 12° |
| 2026-05-07 16:55 | 45.39752 | 43.50133 | 34705 ft | 431 kts | 12° |
| 2026-05-07 16:55 | 45.42702 | 43.50953 | 35054 ft | 432 kts | 12° |
| 2026-05-07 16:55 | 45.45660 | 43.51779 | 35407 ft | 433 kts | 12° |
| 2026-05-07 16:56 | 45.48624 | 43.52608 | 35733 ft | 434 kts | 12° |
| 2026-05-07 16:56 | 45.51605 | 43.53442 | 36053 ft | 435 kts | 12° |
| 2026-05-07 16:56 | 45.57568 | 43.55106 | 36647 ft | 438 kts | 12° |
| 2026-05-07 16:57 | 45.60570 | 43.55945 | 36918 ft | 440 kts | 12° |
| 2026-05-07 16:57 | 45.63555 | 43.56781 | 37075 ft | 442 kts | 12° |
| 2026-05-07 16:57 | 45.69596 | 43.58478 | 37096 ft | 443 kts | 12° |
| 2026-05-07 16:58 | 45.75630 | 43.60175 | 37091 ft | 443 kts | 12° |
| 2026-05-07 16:58 | 45.81685 | 43.61879 | 37175 ft | 443 kts | 12° |
| 2026-05-07 16:59 | 45.84709 | 43.62732 | 37512 ft | 443 kts | 12° |
| 2026-05-07 16:59 | 45.87734 | 43.63588 | 37808 ft | 443 kts | 12° |
| 2026-05-07 16:59 | 45.90765 | 43.64449 | 38086 ft | 444 kts | 12° |
| 2026-05-07 16:59 | 45.93795 | 43.65315 | 38325 ft | 445 kts | 12° |
| 2026-05-07 17:00 | 45.96839 | 43.66183 | 38583 ft | 446 kts | 12° |
| 2026-05-07 17:00 | 45.99889 | 43.67051 | 38807 ft | 447 kts | 11° |
| 2026-05-07 17:00 | 46.02940 | 43.67954 | 38992 ft | 448 kts | 12° |
| 2026-05-07 17:00 | 46.05986 | 43.68937 | 39060 ft | 449 kts | 13° |
| 2026-05-07 17:01 | 46.12067 | 43.71033 | 39069 ft | 449 kts | 14° |
| 2026-05-07 17:01 | 46.18149 | 43.73132 | 39070 ft | 449 kts | 13° |
| 2026-05-07 17:02 | 46.24240 | 43.75180 | 39066 ft | 449 kts | 13° |
| 2026-05-07 17:02 | 46.30332 | 43.77213 | 39064 ft | 449 kts | 13° |
| 2026-05-07 17:03 | 46.36428 | 43.79258 | 39067 ft | 450 kts | 13° |
| 2026-05-07 17:03 | 46.42532 | 43.81314 | 39058 ft | 449 kts | 13° |
| 2026-05-07 17:04 | 46.48620 | 43.83375 | 39056 ft | 448 kts | 13° |
| 2026-05-07 17:04 | 46.54651 | 43.85429 | 39050 ft | 447 kts | 13° |
| 2026-05-07 17:05 | 46.60715 | 43.87489 | 39049 ft | 447 kts | 13° |
| 2026-05-07 17:05 | 46.66776 | 43.89549 | 39047 ft | 447 kts | 13° |
| 2026-05-07 17:06 | 46.72829 | 43.91617 | 39051 ft | 447 kts | 14° |
| 2026-05-07 17:06 | 46.78887 | 43.93701 | 39055 ft | 447 kts | 14° |
| 2026-05-07 17:07 | 46.84955 | 43.95789 | 39057 ft | 447 kts | 14° |
| 2026-05-07 17:07 | 46.91024 | 43.97872 | 39057 ft | 447 kts | 14° |
| 2026-05-07 17:08 | 46.97089 | 43.99968 | 39059 ft | 447 kts | 14° |
| 2026-05-07 17:08 | 47.03103 | 44.02059 | 39058 ft | 447 kts | 14° |
| 2026-05-07 17:09 | 47.09152 | 44.04173 | 39051 ft | 446 kts | 14° |
| 2026-05-07 17:09 | 47.15193 | 44.06293 | 39048 ft | 446 kts | 14° |
| 2026-05-07 17:10 | 47.21228 | 44.08408 | 39044 ft | 445 kts | 14° |
| 2026-05-07 17:10 | 47.27255 | 44.10527 | 39040 ft | 445 kts | 14° |
| 2026-05-07 17:11 | 47.33269 | 44.12659 | 39041 ft | 444 kts | 14° |
| 2026-05-07 17:11 | 47.39273 | 44.14794 | 39048 ft | 444 kts | 14° |
| 2026-05-07 17:12 | 47.45278 | 44.16920 | 39033 ft | 443 kts | 14° |
| 2026-05-07 17:12 | 47.51105 | 44.18987 | 39012 ft | 422 kts | 14° |
| 2026-05-07 17:13 | 47.56757 | 44.21008 | 39009 ft | 416 kts | 14° |
| 2026-05-07 17:13 | 47.62373 | 44.23019 | 39013 ft | 415 kts | 14° |
| 2026-05-07 17:14 | 47.67997 | 44.25030 | 39011 ft | 415 kts | 14° |
| 2026-05-07 17:14 | 47.73619 | 44.27039 | 39007 ft | 415 kts | 14° |
| 2026-05-07 17:15 | 47.79197 | 44.29030 | 39004 ft | 415 kts | 14° |
| 2026-05-07 17:15 | 47.84804 | 44.31047 | 39006 ft | 414 kts | 14° |
| 2026-05-07 17:16 | 47.90422 | 44.33083 | 39008 ft | 414 kts | 14° |
| 2026-05-07 17:16 | 47.95996 | 44.35268 | 39003 ft | 414 kts | 17° |
| 2026-05-07 17:17 | 48.01474 | 44.37928 | 39000 ft | 414 kts | 19° |
| 2026-05-07 17:17 | 48.06933 | 44.40706 | 38998 ft | 414 kts | 19° |
| 2026-05-07 17:18 | 48.12407 | 44.43407 | 39004 ft | 414 kts | 18° |
| 2026-05-07 17:18 | 48.17856 | 44.46029 | 38995 ft | 414 kts | 18° |
| 2026-05-07 17:19 | 48.23352 | 44.48677 | 38988 ft | 414 kts | 18° |
| 2026-05-07 17:19 | 48.28836 | 44.51340 | 38983 ft | 414 kts | 18° |
| 2026-05-07 17:20 | 48.34315 | 44.54010 | 38996 ft | 414 kts | 18° |
| 2026-05-07 17:20 | 48.39790 | 44.56689 | 38983 ft | 414 kts | 18° |
| 2026-05-07 17:21 | 48.45236 | 44.59358 | 38989 ft | 414 kts | 18° |
| 2026-05-07 17:21 | 48.50714 | 44.62052 | 38983 ft | 414 kts | 18° |
| 2026-05-07 17:22 | 48.56197 | 44.64745 | 38988 ft | 414 kts | 18° |
| 2026-05-07 17:22 | 48.61649 | 44.67428 | 38988 ft | 414 kts | 18° |
| 2026-05-07 17:23 | 48.67121 | 44.70143 | 38987 ft | 414 kts | 19° |
| 2026-05-07 17:23 | 48.72595 | 44.72867 | 38996 ft | 414 kts | 18° |
| 2026-05-07 17:24 | 48.78070 | 44.75599 | 38995 ft | 414 kts | 19° |
| 2026-05-07 17:24 | 48.83534 | 44.78332 | 38984 ft | 414 kts | 18° |
| 2026-05-07 17:25 | 48.89056 | 44.80822 | 38981 ft | 414 kts | 15° |
| 2026-05-07 17:25 | 48.94621 | 44.83069 | 38982 ft | 414 kts | 15° |
| 2026-05-07 17:26 | 49.00185 | 44.85326 | 38986 ft | 414 kts | 15° |
| 2026-05-07 17:26 | 49.05734 | 44.87656 | 38985 ft | 414 kts | 16° |
| 2026-05-07 17:27 | 49.10380 | 44.89638 | 38981 ft | 414 kts | 16° |
| 2026-05-07 17:27 | 49.15919 | 44.91999 | 38981 ft | 413 kts | 16° |
| 2026-05-07 17:28 | 49.21464 | 44.94358 | 38977 ft | 413 kts | 16° |
| 2026-05-07 17:28 | 49.27009 | 44.96717 | 38972 ft | 413 kts | 16° |
| 2026-05-07 17:29 | 49.32563 | 44.99089 | 38978 ft | 413 kts | 16° |
| 2026-05-07 17:29 | 49.38069 | 45.01444 | 38976 ft | 413 kts | 16° |
| 2026-05-07 17:30 | 49.43623 | 45.03826 | 38974 ft | 413 kts | 16° |
| 2026-05-07 17:30 | 49.49166 | 45.06211 | 38977 ft | 413 kts | 16° |
| 2026-05-07 17:31 | 49.54672 | 45.08584 | 38971 ft | 413 kts | 16° |
| 2026-05-07 17:31 | 49.60215 | 45.10980 | 38970 ft | 413 kts | 16° |
| 2026-05-07 17:32 | 49.65754 | 45.13376 | 38948 ft | 413 kts | 15° |
| 2026-05-07 17:32 | 49.71298 | 45.15780 | 38961 ft | 413 kts | 15° |
| 2026-05-07 17:33 | 49.76791 | 45.18183 | 38963 ft | 412 kts | 15° |
| 2026-05-07 17:33 | 49.82320 | 45.20612 | 38967 ft | 412 kts | 15° |
| 2026-05-07 17:34 | 49.87835 | 45.23043 | 38970 ft | 412 kts | 15° |
| 2026-05-07 17:34 | 49.93358 | 45.25468 | 38966 ft | 412 kts | 15° |
| 2026-05-07 17:35 | 49.98844 | 45.27883 | 38968 ft | 412 kts | 15° |
| 2026-05-07 17:35 | 50.04372 | 45.30229 | 38970 ft | 411 kts | 13° |
| 2026-05-07 17:36 | 50.09977 | 45.32132 | 38971 ft | 411 kts | 11° |
| 2026-05-07 17:36 | 50.15592 | 45.33907 | 38969 ft | 411 kts | 11° |
| 2026-05-07 17:37 | 50.21201 | 45.35763 | 38967 ft | 412 kts | 12° |
| 2026-05-07 17:37 | 50.26762 | 45.37675 | 38974 ft | 412 kts | 12° |
| 2026-05-07 17:38 | 50.32359 | 45.39609 | 38968 ft | 412 kts | 12° |
| 2026-05-07 17:38 | 50.37963 | 45.41541 | 38971 ft | 412 kts | 12° |
| 2026-05-07 17:39 | 50.43565 | 45.43466 | 38976 ft | 412 kts | 12° |
| 2026-05-07 17:39 | 50.49175 | 45.45393 | 38971 ft | 412 kts | 12° |
| 2026-05-07 17:40 | 50.54781 | 45.47326 | 38973 ft | 412 kts | 12° |
| 2026-05-07 17:40 | 50.60387 | 45.49276 | 38980 ft | 412 kts | 12° |
| 2026-05-07 17:41 | 50.65992 | 45.51218 | 38972 ft | 412 kts | 12° |
| 2026-05-07 17:41 | 50.71601 | 45.53158 | 38977 ft | 413 kts | 12° |
| 2026-05-07 17:42 | 50.77212 | 45.55123 | 38975 ft | 413 kts | 12° |
| 2026-05-07 17:42 | 50.82819 | 45.57112 | 38977 ft | 413 kts | 12° |
| 2026-05-07 17:43 | 50.88381 | 45.59114 | 38973 ft | 413 kts | 12° |
| 2026-05-07 17:43 | 50.94016 | 45.61151 | 38970 ft | 413 kts | 12° |
| 2026-05-07 17:44 | 50.99579 | 45.63158 | 38976 ft | 413 kts | 12° |
| 2026-05-07 17:44 | 51.05052 | 45.65850 | 38968 ft | 413 kts | 25° |
| 2026-05-07 17:45 | 51.10250 | 45.69752 | 38971 ft | 413 kts | 24° |
| 2026-05-07 17:45 | 51.15453 | 45.73658 | 38972 ft | 413 kts | 24° |
| 2026-05-07 17:46 | 51.20654 | 45.77563 | 38966 ft | 413 kts | 24° |
| 2026-05-07 17:46 | 51.25859 | 45.81482 | 38966 ft | 413 kts | 25° |
| 2026-05-07 17:47 | 51.31053 | 45.85406 | 38965 ft | 413 kts | 25° |
| 2026-05-07 17:47 | 51.36248 | 45.89342 | 38965 ft | 413 kts | 25° |
| 2026-05-07 17:48 | 51.41418 | 45.93261 | 38966 ft | 413 kts | 25° |
| 2026-05-07 17:48 | 51.46619 | 45.97221 | 38967 ft | 413 kts | 25° |
| 2026-05-07 17:49 | 51.51778 | 46.01158 | 38967 ft | 412 kts | 25° |
| 2026-05-07 17:49 | 51.56955 | 46.05128 | 38967 ft | 412 kts | 25° |
| 2026-05-07 17:50 | 51.62092 | 46.09269 | 38969 ft | 412 kts | 26° |
| 2026-05-07 17:50 | 51.67179 | 46.13519 | 38968 ft | 412 kts | 27° |
| 2026-05-07 17:51 | 51.72248 | 46.17749 | 38966 ft | 412 kts | 26° |
| 2026-05-07 17:51 | 51.77345 | 46.21980 | 38967 ft | 412 kts | 26° |
| 2026-05-07 17:52 | 51.82445 | 46.26205 | 38965 ft | 412 kts | 26° |
| 2026-05-07 17:52 | 51.87552 | 46.30447 | 38961 ft | 413 kts | 26° |
| 2026-05-07 17:53 | 51.92670 | 46.34714 | 38963 ft | 413 kts | 26° |
| 2026-05-07 17:53 | 51.97787 | 46.38997 | 38968 ft | 413 kts | 26° |
| 2026-05-07 17:54 | 52.02901 | 46.43285 | 38962 ft | 413 kts | 26° |
| 2026-05-07 17:54 | 52.08009 | 46.47585 | 38963 ft | 413 kts | 26° |
| 2026-05-07 17:55 | 52.13086 | 46.51869 | 38964 ft | 413 kts | 26° |
| 2026-05-07 17:55 | 52.18199 | 46.56186 | 38962 ft | 413 kts | 26° |
| 2026-05-07 17:56 | 52.23304 | 46.60502 | 38967 ft | 414 kts | 26° |
| 2026-05-07 17:56 | 52.28446 | 46.64869 | 38969 ft | 414 kts | 27° |
| 2026-05-07 17:57 | 52.32688 | 46.68481 | 38974 ft | 414 kts | 27° |
| 2026-05-07 17:57 | 52.38656 | 46.73573 | 38974 ft | 414 kts | 27° |
| 2026-05-07 17:58 | 52.43760 | 46.77935 | 38975 ft | 414 kts | 27° |
| 2026-05-07 17:58 | 52.48866 | 46.82327 | 38975 ft | 414 kts | 27° |
| 2026-05-07 17:59 | 52.53964 | 46.86718 | 38976 ft | 414 kts | 27° |
| 2026-05-07 17:59 | 52.59061 | 46.91112 | 38976 ft | 413 kts | 27° |
| 2026-05-07 18:00 | 52.64122 | 46.95491 | 38976 ft | 413 kts | 27° |
| 2026-05-07 18:00 | 52.69220 | 46.99903 | 38978 ft | 413 kts | 27° |
| 2026-05-07 18:01 | 52.74318 | 47.04330 | 38974 ft | 414 kts | 27° |
| 2026-05-07 18:01 | 52.79405 | 47.08774 | 38984 ft | 414 kts | 27° |
| 2026-05-07 18:02 | 52.84879 | 47.13574 | 38978 ft | 413 kts | 27° |
| 2026-05-07 18:03 | 52.89962 | 47.18028 | 38982 ft | 413 kts | 27° |
| 2026-05-07 18:03 | 52.95047 | 47.22501 | 38978 ft | 414 kts | 27° |
| 2026-05-07 18:04 | 52.99081 | 47.26069 | 38981 ft | 414 kts | 27° |
| 2026-05-07 18:04 | 53.02716 | 47.29284 | 38984 ft | 413 kts | 27° |
| 2026-05-07 18:05 | 53.07795 | 47.33781 | 38982 ft | 414 kts | 27° |
| 2026-05-07 18:05 | 53.12865 | 47.38274 | 38987 ft | 414 kts | 27° |
| 2026-05-07 18:06 | 53.17957 | 47.42810 | 38988 ft | 415 kts | 27° |
| 2026-05-07 18:06 | 53.23048 | 47.47355 | 38988 ft | 415 kts | 27° |
| 2026-05-07 18:07 | 53.28146 | 47.51925 | 38991 ft | 416 kts | 27° |
| 2026-05-07 18:07 | 53.33247 | 47.56501 | 38991 ft | 416 kts | 27° |
| 2026-05-07 18:08 | 53.36808 | 47.59703 | 38996 ft | 416 kts | 27° |
| 2026-05-07 18:08 | 53.41894 | 47.64289 | 38998 ft | 415 kts | 27° |
| 2026-05-07 18:09 | 53.46990 | 47.68887 | 38995 ft | 415 kts | 26° |
| 2026-05-07 18:09 | 53.52315 | 47.72610 | 38995 ft | 415 kts | 20° |
| 2026-05-07 18:10 | 53.57777 | 47.76211 | 38980 ft | 429 kts | 20° |
| 2026-05-07 18:10 | 53.63435 | 47.79965 | 38977 ft | 444 kts | 21° |
| 2026-05-07 18:11 | 53.69259 | 47.83829 | 38978 ft | 456 kts | 19° |
| 2026-05-07 18:11 | 53.75442 | 47.86586 | 38976 ft | 463 kts | 13° |
| 2026-05-07 18:12 | 53.81715 | 47.89156 | 38979 ft | 465 kts | 15° |
| 2026-05-07 18:12 | 53.87718 | 47.93269 | 38983 ft | 466 kts | 23° |
| 2026-05-07 18:13 | 53.93651 | 47.97735 | 38984 ft | 466 kts | 23° |
| 2026-05-07 18:13 | 53.99588 | 48.02212 | 38988 ft | 467 kts | 23° |
| 2026-05-07 18:14 | 54.05535 | 48.06710 | 38997 ft | 468 kts | 23° |
| 2026-05-07 18:14 | 54.11476 | 48.11227 | 38765 ft | 465 kts | 23° |
| 2026-05-07 18:14 | 54.14438 | 48.13483 | 38039 ft | 464 kts | 23° |
| 2026-05-07 18:15 | 54.17350 | 48.15701 | 37280 ft | 462 kts | 23° |
| 2026-05-07 18:15 | 54.20285 | 48.17937 | 36506 ft | 460 kts | 23° |
| 2026-05-07 18:15 | 54.23206 | 48.20165 | 35752 ft | 458 kts | 23° |
| 2026-05-07 18:15 | 54.26111 | 48.22404 | 34981 ft | 456 kts | 26° |
| 2026-05-07 18:16 | 54.28888 | 48.25009 | 34306 ft | 453 kts | 29° |
| 2026-05-07 18:16 | 54.31628 | 48.27645 | 34057 ft | 452 kts | 29° |
| 2026-05-07 18:16 | 54.34373 | 48.30278 | 33950 ft | 452 kts | 28° |
| 2026-05-07 18:17 | 54.39871 | 48.35548 | 33978 ft | 453 kts | 28° |
| 2026-05-07 18:17 | 54.45356 | 48.40827 | 33975 ft | 452 kts | 29° |
| 2026-05-07 18:18 | 54.50849 | 48.46136 | 33973 ft | 452 kts | 28° |
| 2026-05-07 18:18 | 54.56329 | 48.51446 | 33975 ft | 452 kts | 28° |
| 2026-05-07 18:19 | 54.61811 | 48.56770 | 33976 ft | 452 kts | 28° |
| 2026-05-07 18:19 | 54.67303 | 48.62127 | 33977 ft | 453 kts | 29° |
| 2026-05-07 18:20 | 54.72726 | 48.67439 | 33956 ft | 434 kts | 29° |
| 2026-05-07 18:20 | 54.75310 | 48.69977 | 33803 ft | 420 kts | 29° |
| 2026-05-07 18:20 | 54.77805 | 48.72432 | 33622 ft | 407 kts | 29° |
| 2026-05-07 18:20 | 54.80251 | 48.74838 | 33204 ft | 400 kts | 29° |
| 2026-05-07 18:21 | 54.82658 | 48.77204 | 32703 ft | 396 kts | 29° |
| 2026-05-07 18:21 | 54.85050 | 48.79559 | 32184 ft | 393 kts | 29° |
| 2026-05-07 18:21 | 54.87413 | 48.81895 | 31666 ft | 390 kts | 29° |
| 2026-05-07 18:21 | 54.89762 | 48.84223 | 31156 ft | 387 kts | 29° |
| 2026-05-07 18:22 | 54.92097 | 48.86541 | 30657 ft | 385 kts | 29° |
| 2026-05-07 18:22 | 54.93630 | 48.88065 | 30330 ft | 383 kts | 29° |
| 2026-05-07 18:22 | 54.96716 | 48.91137 | 29611 ft | 380 kts | 29° |
| 2026-05-07 18:22 | 54.98995 | 48.93408 | 29058 ft | 377 kts | 29° |
| 2026-05-07 18:23 | 55.01239 | 48.95648 | 28537 ft | 375 kts | 29° |
| 2026-05-07 18:23 | 55.03521 | 48.97927 | 28007 ft | 372 kts | 29° |
| 2026-05-07 18:23 | 55.05759 | 49.00163 | 27471 ft | 369 kts | 29° |
| 2026-05-07 18:23 | 55.07984 | 49.02388 | 26951 ft | 367 kts | 29° |
| 2026-05-07 18:24 | 55.10167 | 49.04577 | 26459 ft | 365 kts | 29° |
| 2026-05-07 18:24 | 55.12361 | 49.06782 | 25959 ft | 363 kts | 29° |
| 2026-05-07 18:24 | 55.14571 | 49.09010 | 25449 ft | 361 kts | 29° |
| 2026-05-07 18:24 | 55.16706 | 49.11187 | 24953 ft | 359 kts | 32° |
| 2026-05-07 18:25 | 55.18748 | 49.13686 | 24450 ft | 357 kts | 35° |
| 2026-05-07 18:25 | 55.20778 | 49.16272 | 23953 ft | 356 kts | 36° |
| 2026-05-07 18:25 | 55.22764 | 49.18843 | 23462 ft | 354 kts | 36° |
| 2026-05-07 18:25 | 55.24737 | 49.21406 | 22913 ft | 352 kts | 36° |
| 2026-05-07 18:26 | 55.26673 | 49.23921 | 22392 ft | 350 kts | 35° |
| 2026-05-07 18:26 | 55.28617 | 49.26448 | 22022 ft | 346 kts | 35° |
| 2026-05-07 18:26 | 55.30582 | 49.28998 | 21965 ft | 348 kts | 35° |
| 2026-05-07 18:26 | 55.32533 | 49.31530 | 21977 ft | 349 kts | 35° |
| 2026-05-07 18:27 | 55.34489 | 49.34064 | 21976 ft | 349 kts | 35° |
| 2026-05-07 18:27 | 55.36568 | 49.36219 | 21981 ft | 347 kts | 18° |
| 2026-05-07 18:27 | 55.38922 | 49.36936 | 21976 ft | 344 kts | 356° |
| 2026-05-07 18:27 | 55.41232 | 49.36050 | 21973 ft | 341 kts | 334° |
| 2026-05-07 18:28 | 55.43167 | 49.33694 | 21975 ft | 338 kts | 312° |
| 2026-05-07 18:28 | 55.44462 | 49.30269 | 21976 ft | 337 kts | 296° |
| 2026-05-07 18:28 | 55.45459 | 49.26553 | 21645 ft | 334 kts | 294° |
| 2026-05-07 18:28 | 55.46422 | 49.22849 | 21139 ft | 331 kts | 294° |
| 2026-05-07 18:29 | 55.47372 | 49.19172 | 20657 ft | 329 kts | 294° |
| 2026-05-07 18:29 | 55.48303 | 49.15565 | 20200 ft | 326 kts | 294° |
| 2026-05-07 18:29 | 55.49236 | 49.11944 | 19735 ft | 323 kts | 294° |
| 2026-05-07 18:29 | 55.50160 | 49.08354 | 19281 ft | 320 kts | 294° |
| 2026-05-07 18:30 | 55.51074 | 49.04800 | 18841 ft | 317 kts | 294° |
| 2026-05-07 18:30 | 55.51972 | 49.01267 | 18396 ft | 314 kts | 292° |
| 2026-05-07 18:30 | 55.52401 | 48.97541 | 17916 ft | 311 kts | 269° |
| 2026-05-07 18:30 | 55.51930 | 48.93846 | 17409 ft | 311 kts | 248° |
| 2026-05-07 18:31 | 55.50974 | 48.90424 | 16857 ft | 311 kts | 244° |
| 2026-05-07 18:31 | 55.49968 | 48.87038 | 16348 ft | 310 kts | 244° |
| 2026-05-07 18:31 | 55.48963 | 48.83682 | 15847 ft | 308 kts | 244° |
| 2026-05-07 18:31 | 55.47966 | 48.80353 | 15389 ft | 306 kts | 244° |
| 2026-05-07 18:32 | 55.46973 | 48.77045 | 14936 ft | 305 kts | 244° |
| 2026-05-07 18:32 | 55.45985 | 48.73752 | 14485 ft | 303 kts | 244° |
| 2026-05-07 18:32 | 55.45018 | 48.70539 | 14349 ft | 290 kts | 244° |
| 2026-05-07 18:32 | 55.44093 | 48.67471 | 14231 ft | 278 kts | 244° |
| 2026-05-07 18:33 | 55.43199 | 48.64521 | 14105 ft | 267 kts | 244° |
| 2026-05-07 18:33 | 55.42340 | 48.61693 | 13992 ft | 258 kts | 244° |
| 2026-05-07 18:33 | 55.41507 | 48.58954 | 13868 ft | 249 kts | 244° |
| 2026-05-07 18:33 | 55.40702 | 48.56317 | 13741 ft | 240 kts | 244° |
| 2026-05-07 18:34 | 55.39923 | 48.53778 | 13586 ft | 233 kts | 244° |
| 2026-05-07 18:34 | 55.39169 | 48.51283 | 13309 ft | 229 kts | 248° |
| 2026-05-07 18:34 | 55.38856 | 48.48608 | 12988 ft | 223 kts | 278° |
| 2026-05-07 18:34 | 55.39414 | 48.46140 | 12654 ft | 218 kts | 311° |
| 2026-05-07 18:35 | 55.40660 | 48.44689 | 12315 ft | 218 kts | 345° |
| 2026-05-07 18:35 | 55.42167 | 48.44516 | 11972 ft | 219 kts | 2° |
| 2026-05-07 18:35 | 55.43693 | 48.44710 | 11643 ft | 219 kts | 4° |
| 2026-05-07 18:35 | 55.45222 | 48.44953 | 11410 ft | 231 kts | 4° |
| 2026-05-07 18:36 | 55.46948 | 48.45229 | 11254 ft | 256 kts | 4° |
| 2026-05-07 18:36 | 55.48695 | 48.45513 | 11092 ft | 248 kts | 4° |
| 2026-05-07 18:36 | 55.50378 | 48.45792 | 10966 ft | 238 kts | 4° |
| 2026-05-07 18:36 | 55.52000 | 48.46066 | 10837 ft | 229 kts | 4° |
| 2026-05-07 18:37 | 55.53557 | 48.46333 | 10715 ft | 220 kts | 4° |
| 2026-05-07 18:37 | 55.55042 | 48.46590 | 10538 ft | 215 kts | 4° |
| 2026-05-07 18:37 | 55.56686 | 48.46869 | 10412 ft | 260 kts | 4° |
| 2026-05-07 18:37 | 55.58537 | 48.47172 | 10301 ft | 273 kts | 4° |
| 2026-05-07 18:38 | 55.60384 | 48.47478 | 10171 ft | 261 kts | 4° |
| 2026-05-07 18:38 | 55.62155 | 48.47775 | 10057 ft | 250 kts | 4° |
| 2026-05-07 18:38 | 55.63848 | 48.48064 | 9937 ft | 240 kts | 4° |
| 2026-05-07 18:38 | 55.65477 | 48.48345 | 9810 ft | 230 kts | 4° |
| 2026-05-07 18:39 | 55.67038 | 48.48620 | 9679 ft | 220 kts | 4° |
| 2026-05-07 18:39 | 55.68535 | 48.48890 | 9503 ft | 213 kts | 4° |
| 2026-05-07 18:39 | 55.69999 | 48.49157 | 9215 ft | 211 kts | 4° |
| 2026-05-07 18:39 | 55.71452 | 48.49425 | 8906 ft | 210 kts | 4° |
| 2026-05-07 18:40 | 55.72902 | 48.49698 | 8585 ft | 209 kts | 4° |
| 2026-05-07 18:40 | 55.74351 | 48.49972 | 8280 ft | 209 kts | 4° |
| 2026-05-07 18:40 | 55.75789 | 48.50247 | 8020 ft | 206 kts | 4° |
| 2026-05-07 18:40 | 55.77220 | 48.50522 | 7973 ft | 208 kts | 4° |
| 2026-05-07 18:41 | 55.78640 | 48.51071 | 7972 ft | 211 kts | 19° |
| 2026-05-07 18:41 | 55.79798 | 48.52657 | 7967 ft | 216 kts | 54° |
| 2026-05-07 18:41 | 55.80308 | 48.55146 | 7691 ft | 218 kts | 79° |
| 2026-05-07 18:41 | 55.80472 | 48.57837 | 7367 ft | 219 kts | 83° |
| 2026-05-07 18:42 | 55.80585 | 48.60537 | 7066 ft | 219 kts | 84° |
| 2026-05-07 18:42 | 55.80688 | 48.63207 | 6971 ft | 214 kts | 84° |
| 2026-05-07 18:42 | 55.80784 | 48.65795 | 6969 ft | 209 kts | 84° |
| 2026-05-07 18:42 | 55.80879 | 48.68371 | 6974 ft | 209 kts | 84° |
| 2026-05-07 18:43 | 55.80971 | 48.70940 | 6977 ft | 208 kts | 84° |
| 2026-05-07 18:43 | 55.81065 | 48.73519 | 6975 ft | 208 kts | 84° |
| 2026-05-07 18:43 | 55.81157 | 48.76093 | 6978 ft | 208 kts | 84° |
| 2026-05-07 18:43 | 55.81159 | 48.78657 | 6971 ft | 210 kts | 100° |
| 2026-05-07 18:44 | 55.80544 | 48.80988 | 6977 ft | 211 kts | 129° |
| 2026-05-07 18:44 | 55.79602 | 48.82977 | 6814 ft | 210 kts | 130° |
| 2026-05-07 18:44 | 55.78737 | 48.84784 | 6550 ft | 210 kts | 130° |
| 2026-05-07 18:44 | 55.78479 | 48.85323 | 6476 ft | 209 kts | 130° |
| 2026-05-07 18:45 | 55.77536 | 48.87290 | 6209 ft | 208 kts | 130° |
| 2026-05-07 18:45 | 55.76600 | 48.89242 | 5938 ft | 208 kts | 130° |
| 2026-05-07 18:45 | 55.75667 | 48.91182 | 5669 ft | 206 kts | 130° |
| 2026-05-07 18:45 | 55.74743 | 48.93105 | 5402 ft | 204 kts | 130° |
| 2026-05-07 18:46 | 55.73823 | 48.95020 | 5146 ft | 203 kts | 130° |
| 2026-05-07 18:46 | 55.72913 | 48.96918 | 4962 ft | 201 kts | 130° |
| 2026-05-07 18:46 | 55.71975 | 48.98763 | 4839 ft | 203 kts | 130° |
| 2026-05-07 18:46 | 55.71086 | 49.00783 | 4742 ft | 207 kts | 125° |
| 2026-05-07 18:47 | 55.70538 | 49.02158 | 4646 ft | 196 kts | 124° |
| 2026-05-07 18:47 | 55.69809 | 49.04046 | 4560 ft | 173 kts | 123° |
| 2026-05-07 18:47 | 55.69174 | 49.05697 | 4424 ft | 154 kts | 124° |
| 2026-05-07 18:47 | 55.68395 | 49.07742 | 3962 ft | 155 kts | 123° |
| 2026-05-07 18:48 | 55.67988 | 49.08830 | 3677 ft | 158 kts | 124° |
| 2026-05-07 18:48 | 55.67387 | 49.10452 | 3256 ft | 158 kts | 124° |
| 2026-05-07 18:48 | 55.66793 | 49.12067 | 2891 ft | 154 kts | 124° |
| 2026-05-07 18:48 | 55.66219 | 49.13625 | 2596 ft | 147 kts | 124° |
| 2026-05-07 18:49 | 55.65662 | 49.15113 | 2331 ft | 144 kts | 125° |
| 2026-05-07 18:49 | 55.65107 | 49.16568 | 2078 ft | 142 kts | 125° |
| 2026-05-07 18:49 | 55.64551 | 49.17991 | 1695 ft | 139 kts | 126° |
| 2026-05-07 18:49 | 55.63993 | 49.19361 | 1345 ft | 135 kts | 127° |
| 2026-05-07 18:50 | 55.63434 | 49.20671 | 1010 ft | 133 kts | 127° |
| 2026-05-07 18:50 | 55.62908 | 49.21984 | 767 ft | 126 kts | 124° |
| 2026-05-07 18:50 | 55.62424 | 49.23237 | 623 ft | 122 kts | 124° |
| 2026-05-07 18:50 | 55.61946 | 49.24470 | 521 ft | 121 kts | 124° |
| 2026-05-07 18:51 | 55.61467 | 49.25694 | 408 ft | 116 kts | 124° |
| 2026-05-07 18:51 | 55.61097 | 49.26654 | 408 ft | 57 kts | 124° |
| 2026-05-07 18:51 | 55.60926 | 49.27100 | 403 ft | 43 kts | 123° |
| 2026-05-07 18:51 | 55.60761 | 49.27540 | 409 ft | 42 kts | 123° |
| 2026-05-07 18:52 | 55.60602 | 49.27961 | 404 ft | 41 kts | 123° |
| 2026-05-07 18:52 | 55.60449 | 49.28338 | 404 ft | 30 kts | 127° |
| 2026-05-07 18:52 | 55.60391 | 49.28555 | 408 ft | 16 kts | 72° |
| 2026-05-07 18:52 | 55.60428 | 49.28616 | 408 ft | 1 kts | 36° |
| 2026-05-07 18:53 | 55.60434 | 49.28623 | 408 ft | 3 kts | 36° |
| 2026-05-07 18:53 | 55.60451 | 49.28646 | 407 ft | 6 kts | 36° |
| 2026-05-07 18:53 | 55.60498 | 49.28706 | 407 ft | 10 kts | 37° |
| 2026-05-07 18:53 | 55.60515 | 49.28737 | 407 ft | 1 kts | 49° |
| 2026-05-07 18:54 | 55.60517 | 49.28739 | 407 ft | 0 kts | 49° |
| 2026-05-07 18:54 | 55.60517 | 49.28791 | 407 ft | 11 kts | 102° |
| 2026-05-07 18:54 | 55.60472 | 49.28921 | 403 ft | 14 kts | 123° |
| 2026-05-07 18:54 | 55.60412 | 49.29080 | 407 ft | 17 kts | 123° |
| 2026-05-07 18:55 | 55.60339 | 49.29272 | 405 ft | 20 kts | 124° |
| 2026-05-07 18:55 | 55.60253 | 49.29493 | 404 ft | 23 kts | 124° |
| 2026-05-07 18:55 | 55.60157 | 49.29737 | 407 ft | 26 kts | 125° |
| 2026-05-07 18:55 | 55.60126 | 49.29927 | 407 ft | 13 kts | 50° |
| 2026-05-07 18:56 | 55.60205 | 49.29927 | 407 ft | 13 kts | 336° |
| 2026-05-07 18:56 | 55.60305 | 49.29879 | 407 ft | 17 kts | 0° |
| 2026-05-07 18:56 | 55.60424 | 49.29963 | 407 ft | 20 kts | 36° |
| 2026-05-07 18:56 | 55.60533 | 49.30089 | 407 ft | 13 kts | 21° |
| 2026-05-07 18:57 | 55.60608 | 49.30008 | 406 ft | 15 kts | 306° |
| 2026-05-07 18:57 | 55.60621 | 49.29980 | 407 ft | 1 kts | 317° |
| 2026-05-07 18:57 | 55.60638 | 49.29967 | 407 ft | 4 kts | 352° |
| 2026-05-07 18:57 | 55.60672 | 49.29993 | 407 ft | 7 kts | 33° |
| 2026-05-07 18:58 | 55.60694 | 49.30018 | 407 ft | 3 kts | 33° |
| 2026-05-07 18:58 | 55.60697 | 49.30022 | 407 ft | 0 kts | 33° |